createdAt,value
2022-08-14T00:01:54.734Z,96973.56
2022-08-14T00:04:56.462Z,96964.03
2022-08-14T00:07:58.010Z,96953.09
2022-08-14T00:10:59.838Z,96945.25
2022-08-14T00:14:02.309Z,96952.19
2022-08-14T00:17:04.760Z,96947.69
2022-08-14T00:20:08.762Z,96945.97
2022-08-14T00:23:16.472Z,96942.06
2022-08-14T00:26:21.784Z,96935.84
2022-08-14T00:29:25.467Z,96923.63
2022-08-14T00:32:55.934Z,96923.28
2022-08-14T00:36:47.809Z,96920.63
2022-08-14T00:39:18.056Z,96911.41
2022-08-14T00:42:55.784Z,96908.19
2022-08-14T00:45:43.513Z,96913.44
2022-08-14T00:48:54.381Z,96920.25
2022-08-14T00:52:00.350Z,96914.19
2022-08-14T00:55:02.689Z,96908.41
2022-08-14T00:58:32.671Z,96916.59
2022-08-14T01:01:35.916Z,96910.38
2022-08-14T01:04:53.716Z,96906.56
2022-08-14T01:07:59.627Z,96891.31
2022-08-14T01:11:02.025Z,96893.59
2022-08-14T01:14:25.993Z,96882.22
2022-08-14T01:17:50.459Z,96892.38
2022-08-14T01:21:03.657Z,96886.06
2022-08-14T01:24:09.804Z,96899.41
2022-08-14T01:27:22.245Z,96892.31
2022-08-14T01:30:26.342Z,96896.97
2022-08-14T01:33:29.915Z,96901.69
2022-08-14T01:36:36.547Z,96902.69
2022-08-14T01:39:38.974Z,96878.31
2022-08-14T01:42:44.243Z,96887.25
2022-08-14T01:45:57.809Z,96898.59
2022-08-14T01:49:10.302Z,96888.13
2022-08-14T01:52:23.289Z,96884.38
2022-08-14T01:55:36.716Z,96877.44
2022-08-14T01:58:57.564Z,96874.09
2022-08-14T02:02:03.514Z,96871.22
2022-08-14T02:05:06.176Z,96850.59
2022-08-14T02:08:10.359Z,96850.09
2022-08-14T02:11:24.529Z,96858.84
2022-08-14T02:14:31.715Z,96860.81
2022-08-14T02:17:33.962Z,96864.47
2022-08-14T02:20:35.801Z,96866.81
2022-08-14T02:23:37.412Z,96862.16
2022-08-14T02:28:19.078Z,96857.13
2022-08-14T02:30:05.421Z,96855.16
2022-08-14T02:33:10.674Z,96852.34
2022-08-14T02:37:02.744Z,96839.78
2022-08-14T02:39:41.149Z,96839.34
2022-08-14T02:42:42.719Z,96829.19
2022-08-14T02:45:56.945Z,96835.53
2022-08-14T02:49:01.933Z,96820.00
2022-08-14T02:52:55.844Z,96820.13
2022-08-14T02:55:30.922Z,96813.69
2022-08-14T02:58:37.329Z,96820.94
2022-08-14T03:01:50.088Z,96806.09
2022-08-14T03:04:54.334Z,96805.75
2022-08-14T03:08:08.366Z,96798.59
2022-08-14T03:11:11.763Z,96798.34
2022-08-14T03:14:15.499Z,96797.53
2022-08-14T03:17:19.450Z,96801.06
2022-08-14T03:20:23.901Z,96795.19
2022-08-14T03:23:25.661Z,96802.66
2022-08-14T03:26:30.225Z,96794.00
2022-08-14T03:29:32.818Z,96783.97
2022-08-14T03:32:34.358Z,96781.63
2022-08-14T03:35:40.370Z,96776.47
2022-08-14T03:39:21.636Z,96772.66
2022-08-14T03:42:20.085Z,96768.38
2022-08-14T03:45:34.013Z,96767.56
2022-08-14T03:48:40.540Z,96769.91
2022-08-14T03:51:42.109Z,96774.69
2022-08-14T03:54:46.613Z,96770.91
2022-08-14T03:57:55.742Z,96772.78
2022-08-14T04:00:59.783Z,96763.41
2022-08-14T04:04:06.040Z,96766.13
2022-08-14T04:07:10.857Z,96762.78
2022-08-14T04:10:12.816Z,96758.28
2022-08-14T04:13:19.171Z,96759.41
2022-08-14T04:16:25.457Z,96756.66
2022-08-14T04:19:36.503Z,96757.63
2022-08-14T04:22:43.700Z,96744.47
2022-08-14T04:25:46.074Z,96751.59
2022-08-14T04:29:07.408Z,96744.41
2022-08-14T04:33:01.131Z,96747.31
2022-08-14T04:35:55.285Z,96750.31
2022-08-14T04:39:17.627Z,96748.31
2022-08-14T04:42:37.977Z,96757.03
2022-08-14T04:45:51.188Z,96761.53
2022-08-14T04:48:59.923Z,96767.84
2022-08-14T04:52:18.959Z,96758.06
2022-08-14T04:55:20.635Z,96769.34
2022-08-14T04:58:32.598Z,96763.81
2022-08-14T05:01:39.880Z,96763.16
2022-08-14T05:04:45.576Z,96765.50
2022-08-14T05:08:12.101Z,96772.47
2022-08-14T05:11:36.715Z,96779.00
2022-08-14T05:14:45.794Z,96783.91
2022-08-14T05:18:03.787Z,96786.91
2022-08-14T05:21:57.878Z,96785.75
2022-08-14T05:24:38.610Z,96777.56
2022-08-14T05:27:40.159Z,96763.34
2022-08-14T05:30:43.584Z,96769.19
2022-08-14T05:33:56.478Z,96764.13
2022-08-14T05:37:02.066Z,96759.09
2022-08-14T05:40:05.085Z,96762.97
2022-08-14T05:43:08.597Z,96765.28
2022-08-14T05:46:15.751Z,96761.75
2022-08-14T05:49:17.755Z,96758.25
2022-08-14T05:52:38.423Z,96760.56
2022-08-14T05:55:44.235Z,96757.38
2022-08-14T05:58:46.026Z,96757.56
2022-08-14T06:01:47.485Z,96771.09
2022-08-14T06:04:52.617Z,96753.25
2022-08-14T06:07:54.327Z,96753.91
2022-08-14T06:11:03.508Z,96750.47
2022-08-14T06:14:12.328Z,96747.06
2022-08-14T06:17:25.811Z,96740.91
2022-08-14T06:20:30.058Z,96738.25
2022-08-14T06:23:32.045Z,96747.72
2022-08-14T06:26:33.993Z,96736.97
2022-08-14T06:29:36.938Z,96730.09
2022-08-14T06:32:39.557Z,96725.13
2022-08-14T06:35:44.591Z,96723.41
2022-08-14T06:38:50.833Z,96716.25
2022-08-14T06:41:59.308Z,96709.63
2022-08-14T06:45:01.425Z,96710.84
2022-08-14T06:48:12.657Z,96704.13
2022-08-14T06:51:14.444Z,96702.78
2022-08-14T06:54:15.918Z,96703.09
2022-08-14T06:57:17.962Z,96695.50
2022-08-14T07:00:22.459Z,96691.06
2022-08-14T07:03:48.526Z,96687.44
2022-08-14T07:06:50.558Z,96679.53
2022-08-14T07:09:52.877Z,96675.31
2022-08-14T07:13:03.553Z,96672.06
2022-08-14T07:16:06.497Z,96667.16
2022-08-14T07:19:11.446Z,96658.50
2022-08-14T07:22:17.744Z,96661.44
2022-08-14T07:25:22.263Z,96666.91
2022-08-14T07:28:43.420Z,96663.63
2022-08-14T07:31:46.425Z,96657.41
2022-08-14T07:34:48.897Z,96657.81
2022-08-14T07:37:52.663Z,96667.13
2022-08-14T07:40:54.437Z,96669.63
2022-08-14T07:43:57.754Z,96668.34
2022-08-14T07:47:00.604Z,96671.00
2022-08-14T07:50:07.939Z,96669.13
2022-08-14T07:53:14.201Z,96674.53
2022-08-14T07:56:22.121Z,96680.31
2022-08-14T07:59:43.747Z,96681.91
2022-08-14T08:02:50.570Z,96673.19
2022-08-14T08:05:57.947Z,96673.72
2022-08-14T08:09:03.569Z,96676.16
2022-08-14T08:12:14.205Z,96670.56
2022-08-14T08:15:16.953Z,96668.44
2022-08-14T08:18:20.419Z,96665.31
2022-08-14T08:21:33.165Z,96666.16
2022-08-14T08:24:36.977Z,96666.31
2022-08-14T08:27:38.693Z,96668.28
2022-08-14T08:31:00.559Z,96657.25
2022-08-14T08:34:04.517Z,96648.19
2022-08-14T08:37:07.696Z,96652.19
2022-08-14T08:40:11.438Z,96664.22
2022-08-14T08:43:34.068Z,96658.81
2022-08-14T08:46:36.502Z,96655.50
2022-08-14T08:49:59.307Z,96648.41
2022-08-14T08:53:04.872Z,96639.19
2022-08-14T08:56:06.806Z,96654.19
2022-08-14T08:59:30.738Z,96646.06
2022-08-14T09:02:33.396Z,96640.25
2022-08-14T09:05:37.514Z,96631.41
2022-08-14T09:08:39.133Z,96632.94
2022-08-14T09:11:43.347Z,96618.03
2022-08-14T09:14:48.853Z,96615.75
2022-08-14T09:17:51.857Z,96619.06
2022-08-14T09:20:58.551Z,96618.44
2022-08-14T09:24:29.133Z,96625.78
2022-08-14T09:27:23.316Z,96628.03
2022-08-14T09:30:32.621Z,96624.28
2022-08-14T09:33:56.047Z,96624.53
2022-08-14T09:37:19.305Z,96617.84
2022-08-14T09:40:47.695Z,96607.66
2022-08-14T09:43:58.583Z,96618.00
2022-08-14T09:47:00.134Z,96604.00
2022-08-14T09:50:01.912Z,96595.19
2022-08-14T09:53:05.797Z,96590.56
2022-08-14T09:56:30.295Z,96575.91
2022-08-14T09:59:46.336Z,96576.06
2022-08-14T10:02:54.182Z,96567.28
2022-08-14T10:06:09.030Z,96571.66
2022-08-14T10:09:16.624Z,96573.56
2022-08-14T10:12:29.011Z,96573.34
2022-08-14T10:15:32.966Z,96558.56
2022-08-14T10:18:34.447Z,96548.44
2022-08-14T10:21:38.716Z,96538.75
2022-08-14T10:24:44.805Z,96534.19
2022-08-14T10:27:57.882Z,96530.91
2022-08-14T10:30:59.432Z,96523.56
2022-08-14T10:34:02.893Z,96520.97
2022-08-14T10:37:08.712Z,96514.97
2022-08-14T10:40:44.335Z,96518.72
2022-08-14T10:44:09.071Z,96516.53
2022-08-14T10:47:41.686Z,96509.97
2022-08-14T10:50:49.269Z,96505.06
2022-08-14T10:53:56.953Z,96498.28
2022-08-14T10:57:11.379Z,96492.44
2022-08-14T11:00:20.797Z,96492.88
2022-08-14T11:03:56.571Z,96502.69
2022-08-14T11:06:59.166Z,96496.75
2022-08-14T11:10:04.761Z,96486.31
2022-08-14T11:13:07.018Z,96489.09
2022-08-14T11:16:09.454Z,96492.22
2022-08-14T11:19:12.998Z,96501.00
2022-08-14T11:22:56.267Z,96494.94
2022-08-14T11:25:53.215Z,96492.25
2022-08-14T11:28:57.374Z,96503.47
2022-08-14T11:32:02.230Z,96504.84
2022-08-14T11:35:04.087Z,96488.41
2022-08-14T11:38:08.719Z,96495.00
2022-08-14T11:41:11.361Z,96496.13
2022-08-14T11:44:13.233Z,96486.22
2022-08-14T11:47:19.635Z,96487.59
2022-08-14T11:50:36.126Z,96475.25
2022-08-14T11:53:42.023Z,96467.81
2022-08-14T11:56:45.620Z,96473.91
2022-08-14T11:59:47.846Z,96468.66
2022-08-14T12:03:02.965Z,96465.13
2022-08-14T12:06:29.207Z,96456.88
2022-08-14T12:09:35.563Z,96453.31
2022-08-14T12:12:38.022Z,96455.97
2022-08-14T12:15:45.563Z,96449.50
2022-08-14T12:18:49.628Z,96447.78
2022-08-14T12:21:51.775Z,96446.66
2022-08-14T12:24:55.206Z,96435.97
2022-08-14T12:28:01.735Z,96436.56
2022-08-14T12:31:20.759Z,96421.16
2022-08-14T12:34:22.838Z,96419.72
2022-08-14T12:37:31.051Z,96424.13
2022-08-14T12:40:32.702Z,96416.38
2022-08-14T12:43:56.362Z,96412.06
2022-08-14T12:47:03.743Z,96402.97
2022-08-14T12:50:11.878Z,96403.84
2022-08-14T12:53:14.496Z,96402.22
2022-08-14T12:56:22.088Z,96398.34
2022-08-14T12:59:37.330Z,96393.25
2022-08-14T13:02:50.896Z,96384.84
2022-08-14T13:05:57.775Z,96384.56
2022-08-14T13:09:00.292Z,96377.16
2022-08-14T13:12:34.833Z,96370.69
2022-08-14T13:15:27.125Z,96366.00
2022-08-14T13:37:41.494Z,96346.41
2022-08-14T13:40:43.278Z,96348.31
2022-08-14T13:43:59.297Z,96339.50
2022-08-14T13:47:06.520Z,96341.47
2022-08-14T13:50:13.930Z,96332.00
2022-08-14T13:53:22.966Z,96333.13
2022-08-14T13:56:36.368Z,96322.41
2022-08-14T13:59:44.242Z,96323.19
2022-08-14T14:02:47.652Z,96323.72
2022-08-14T14:05:55.005Z,96308.41
2022-08-14T14:08:58.995Z,96312.25
2022-08-14T14:12:01.048Z,96309.41
2022-08-14T14:15:11.122Z,96292.59
2022-08-14T14:18:29.947Z,96300.59
2022-08-14T14:21:36.195Z,96295.69
2022-08-14T14:24:40.074Z,96289.56
2022-08-14T14:27:48.590Z,96287.13
2022-08-14T14:30:57.293Z,96290.25
2022-08-14T14:34:07.670Z,96286.06
2022-08-14T14:37:22.048Z,96278.66
2022-08-14T14:40:53.979Z,96281.91
2022-08-14T14:43:51.684Z,96276.41
2022-08-14T14:46:54.146Z,96280.00
2022-08-14T14:49:56.735Z,96273.22
2022-08-14T14:53:12.226Z,96269.91
2022-08-14T14:56:47.530Z,96268.31
2022-08-14T14:59:37.369Z,96265.25
2022-08-14T15:02:42.118Z,96274.81
2022-08-14T15:05:44.241Z,96256.41
2022-08-14T15:08:55.979Z,96249.28
2022-08-14T15:11:58.644Z,96260.00
2022-08-14T15:15:08.608Z,96264.41
2022-08-14T15:18:35.867Z,96260.56
2022-08-14T15:21:32.322Z,96252.56
2022-08-14T15:24:34.474Z,96262.63
2022-08-14T15:27:37.800Z,96258.75
2022-08-14T15:30:50.918Z,96250.56
2022-08-14T15:34:40.936Z,96253.25
2022-08-14T15:37:35.124Z,96258.91
2022-08-14T15:40:43.671Z,96254.63
2022-08-14T15:43:53.343Z,96251.00
2022-08-14T15:46:59.625Z,96250.88
2022-08-14T15:50:05.047Z,96258.22
2022-08-14T15:53:09.021Z,96257.53
2022-08-14T15:56:42.330Z,96250.53
2022-08-14T15:59:57.203Z,96258.66
2022-08-14T16:03:00.498Z,96257.44
2022-08-14T16:06:15.233Z,96252.69
2022-08-14T16:09:18.851Z,96249.16
2022-08-14T16:12:41.170Z,96243.16
2022-08-14T16:15:53.233Z,96247.59
2022-08-14T16:18:58.029Z,96245.66
2022-08-14T16:22:59.240Z,96241.97
2022-08-14T16:25:35.487Z,96244.22
2022-08-14T16:28:37.643Z,96241.63
2022-08-14T16:31:43.105Z,96243.81
2022-08-14T16:34:49.139Z,96245.06
2022-08-14T16:37:56.395Z,96235.22
2022-08-14T16:41:18.066Z,96238.50
2022-08-14T16:44:32.067Z,96233.19
2022-08-14T16:47:36.391Z,96227.97
2022-08-14T16:50:40.520Z,96232.13
2022-08-14T16:53:47.209Z,96224.22
2022-08-14T16:56:48.680Z,96222.13
2022-08-14T16:59:58.963Z,96220.72
2022-08-14T17:03:08.646Z,96222.97
2022-08-14T17:06:30.898Z,96225.09
2022-08-14T17:09:43.423Z,96225.91
2022-08-14T17:12:45.579Z,96224.00
2022-08-14T17:16:24.783Z,96223.22
2022-08-14T17:19:40.027Z,96226.50
2022-08-14T17:22:54.438Z,96230.91
2022-08-14T17:25:56.184Z,96223.09
2022-08-14T17:29:06.964Z,96220.75
2022-08-14T17:32:29.214Z,96219.50
2022-08-14T17:35:58.694Z,96215.50
2022-08-14T17:39:07.351Z,96221.69
2022-08-14T17:42:13.459Z,96213.69
2022-08-14T17:45:16.394Z,96222.81
2022-08-14T17:49:15.821Z,96218.81
2022-08-14T17:52:07.375Z,96228.53
2022-08-14T17:56:01.303Z,96221.81
2022-08-14T17:58:41.715Z,96221.88
2022-08-14T18:01:45.593Z,96224.00
2022-08-14T18:04:51.108Z,96222.56
2022-08-14T18:08:00.292Z,96217.09
2022-08-14T18:11:17.724Z,96215.53
2022-08-14T18:14:32.073Z,96224.22
2022-08-14T18:17:36.641Z,96232.94
2022-08-14T18:21:42.983Z,96230.66
2022-08-14T18:24:00.410Z,96235.97
2022-08-14T18:27:08.700Z,96244.84
2022-08-14T18:30:32.121Z,96239.66
2022-08-14T18:33:35.042Z,96238.41
2022-08-14T18:36:56.733Z,96234.38
2022-08-14T18:40:18.139Z,96248.94
2022-08-14T18:43:43.304Z,96251.09
2022-08-14T18:47:14.917Z,96241.91
2022-08-14T18:50:26.892Z,96244.56
2022-08-14T18:53:52.156Z,96255.22
2022-08-14T18:56:59.264Z,96254.69
2022-08-14T19:00:33.469Z,96259.16
2022-08-14T19:03:36.391Z,96252.31
2022-08-14T19:06:48.974Z,96258.50
2022-08-14T19:10:00.756Z,96259.50
2022-08-14T19:13:05.339Z,96259.44
2022-08-14T19:16:26.178Z,96258.47
2022-08-14T19:19:38.401Z,96251.28
2022-08-14T19:22:41.893Z,96258.13
2022-08-14T19:25:52.063Z,96263.16
2022-08-14T19:28:53.799Z,96266.34
2022-08-14T19:32:05.347Z,96268.00
2022-08-14T19:38:46.682Z,96268.38
2022-08-14T19:41:58.285Z,96275.25
2022-08-14T19:45:01.062Z,96275.16
2022-08-14T19:48:04.739Z,96274.63
2022-08-14T19:51:08.038Z,96278.31
2022-08-14T19:54:13.537Z,96286.72
2022-08-14T19:57:29.108Z,96289.78
2022-08-14T20:00:31.195Z,96288.25
2022-08-14T20:04:00.341Z,96287.09
2022-08-14T20:07:06.357Z,96287.81
2022-08-14T20:11:07.974Z,96298.47
2022-08-14T20:13:47.288Z,96308.53
2022-08-14T20:16:55.392Z,96319.03
2022-08-14T20:19:57.612Z,96318.72
2022-08-14T20:23:11.309Z,96330.03
2022-08-14T20:26:31.381Z,96332.16
2022-08-14T20:29:38.067Z,96324.25
2022-08-14T20:32:53.522Z,96333.53
2022-08-14T20:35:55.552Z,96325.91
2022-08-14T20:38:58.368Z,96325.53
2022-08-14T20:42:29.130Z,96339.06
2022-08-14T20:45:34.467Z,96336.22
2022-08-14T20:48:53.016Z,96339.78
2022-08-14T20:52:00.073Z,96345.66
2022-08-14T20:55:21.803Z,96340.91
2022-08-14T20:58:50.788Z,96333.25
2022-08-14T21:01:59.527Z,96334.56
2022-08-14T21:05:04.479Z,96338.22
2022-08-14T21:08:22.536Z,96327.88
2022-08-14T21:11:28.447Z,96335.88
2022-08-14T21:14:30.001Z,96335.75
2022-08-14T21:17:32.176Z,96336.72
2022-08-14T21:20:40.330Z,96349.09
2022-08-14T21:23:55.311Z,96347.31
2022-08-14T21:27:04.201Z,96344.72
2022-08-14T21:30:11.036Z,96344.34
2022-08-14T21:33:12.756Z,96345.22
2022-08-14T21:36:21.997Z,96346.03
2022-08-14T21:39:24.406Z,96343.31
2022-08-14T21:42:28.027Z,96346.63
2022-08-14T21:45:31.730Z,96347.00
2022-08-14T21:48:37.337Z,96347.94
2022-08-14T21:51:54.873Z,96349.56
2022-08-14T21:55:00.280Z,96358.66
2022-08-14T21:58:51.803Z,96354.97
2022-08-14T22:01:23.840Z,96361.00
2022-08-14T22:04:31.926Z,96355.28
2022-08-14T22:07:38.984Z,96360.50
2022-08-14T22:10:46.389Z,96360.03
2022-08-14T22:13:48.987Z,96356.47
2022-08-14T22:17:01.699Z,96361.31
2022-08-14T22:20:16.367Z,96353.72
2022-08-14T22:23:19.362Z,96355.34
2022-08-14T22:26:22.107Z,96351.38
2022-08-14T22:29:23.961Z,96353.59
2022-08-14T22:32:56.047Z,96360.09
2022-08-14T22:35:48.184Z,96360.09
2022-08-14T22:38:58.068Z,96362.09
2022-08-14T22:42:01.612Z,96353.56
2022-08-14T22:45:22.219Z,96361.94
2022-08-14T22:48:23.734Z,96366.94
2022-08-14T22:51:26.142Z,96366.94
2022-08-14T22:54:53.065Z,96367.47
2022-08-14T22:57:53.305Z,96368.88
2022-08-14T23:00:55.333Z,96360.97
2022-08-14T23:03:56.918Z,96354.97
2022-08-14T23:07:02.993Z,96363.00
2022-08-14T23:10:33.035Z,96367.22
2022-08-14T23:13:30.727Z,96368.69
2022-08-14T23:16:33.991Z,96371.38
2022-08-14T23:19:35.500Z,96375.94
2022-08-14T23:22:37.033Z,96369.78
2022-08-14T23:25:59.411Z,96362.28
2022-08-14T23:29:03.552Z,96369.94
2022-08-14T23:32:05.959Z,96361.38
2022-08-14T23:35:17.583Z,96360.75
2022-08-14T23:38:30.282Z,96358.66
2022-08-14T23:41:47.081Z,96359.78
2022-08-14T23:44:55.556Z,96360.50
2022-08-14T23:47:59.196Z,96359.53
2022-08-14T23:51:02.469Z,96361.25
2022-08-14T23:54:04.662Z,96350.56
2022-08-14T23:57:06.132Z,96345.75
